Time;durP1;ratioP1;P1;durP2;ratioP2;P2;SDS_P1;SDS_P2;PMS_P1;PMS_P2;Temp;Humidity;BMP_temperature;BMP_pressure;BME280_temperature;BME280_humidity;BME280_pressure;Samples;Min_cycle;Max_cycle;Signal;HPM_P1;HPM_P2
2021/09/29 00:01:44;;;;;;;;;;;24.90;49.40;;;;;;488644;243;1044;-70
2021/09/29 00:03:45;;;;;;;;;;;24.90;49.50;;;;;;488806;243;2114;-70
2021/09/29 00:05:47;;;;;;;;;;;25.00;49.40;;;;;;488810;243;1138;-70
2021/09/29 00:07:48;;;;;;;;;;;25.00;49.20;;;;;;488771;243;1078;-70
2021/09/29 00:09:49;;;;;;;;;;;24.80;49.50;;;;;;488820;243;1264;-70
2021/09/29 00:11:51;;;;;;;;;;;24.90;49.50;;;;;;488752;243;1629;-70
2021/09/29 00:13:52;;;;;;;;;;;24.90;49.40;;;;;;488790;243;1075;-70
2021/09/29 00:15:53;;;;;;;;;;;24.80;49.60;;;;;;488713;243;969;-70
2021/09/29 00:17:55;;;;;;;;;;;24.90;49.60;;;;;;488788;243;1034;-70
2021/09/29 00:19:56;;;;;;;;;;;24.80;49.50;;;;;;488731;243;1260;-70
2021/09/29 00:21:57;;;;;;;;;;;24.80;49.60;;;;;;488704;243;994;-70
2021/09/29 00:23:59;;;;;;;;;;;24.80;49.80;;;;;;488711;243;2118;-70
2021/09/29 00:26:00;;;;;;;;;;;24.80;49.80;;;;;;488766;243;1174;-70
2021/09/29 00:28:02;;;;;;;;;;;24.80;49.60;;;;;;488761;243;1055;-70
2021/09/29 00:30:05;;;;;;;;;;;24.90;49.60;;;;;;488675;243;1098;-70
2021/09/29 00:32:06;;;;;;;;;;;24.90;49.60;;;;;;488560;243;1366;-70
2021/09/29 00:34:11;;;;;;;;;;;24.90;49.50;;;;;;488582;243;1361;-70
2021/09/29 00:36:11;;;;;;;;;;;24.90;49.50;;;;;;488729;243;1405;-70
2021/09/29 00:38:12;;;;;;;;;;;24.90;49.50;;;;;;488730;243;951;-70
2021/09/29 00:40:13;;;;;;;;;;;24.90;49.60;;;;;;488827;243;941;-70
2021/09/29 00:42:15;;;;;;;;;;;24.90;49.60;;;;;;488745;243;1118;-70
2021/09/29 00:44:16;;;;;;;;;;;24.90;49.60;;;;;;488756;243;2190;-70
2021/09/29 00:46:17;;;;;;;;;;;24.90;49.60;;;;;;488751;243;1228;-70
2021/09/29 00:48:19;;;;;;;;;;;24.90;49.60;;;;;;488796;243;1041;-70
2021/09/29 00:50:20;;;;;;;;;;;24.90;49.60;;;;;;488744;243;986;-70
2021/09/29 00:52:21;;;;;;;;;;;24.90;49.50;;;;;;488633;243;1049;-70
2021/09/29 00:54:26;;;;;;;;;;;24.80;49.60;;;;;;488781;243;1048;-69
2021/09/29 00:56:24;;;;;;;;;;;24.70;50.00;;;;;;488561;243;1394;-69
2021/09/29 00:58:25;;;;;;;;;;;24.70;49.80;;;;;;488826;243;947;-69
2021/09/29 01:00:27;;;;;;;;;;;24.80;49.80;;;;;;488766;243;1111;-70
2021/09/29 01:02:28;;;;;;;;;;;24.90;49.70;;;;;;488720;243;1027;-70
2021/09/29 01:04:29;;;;;;;;;;;24.90;49.70;;;;;;488698;243;2193;-70
2021/09/29 01:06:31;;;;;;;;;;;24.90;49.60;;;;;;488616;243;1042;-70
2021/09/29 01:08:32;;;;;;;;;;;24.80;49.60;;;;;;488723;243;930;-70
2021/09/29 01:10:33;;;;;;;;;;;24.90;49.70;;;;;;488737;243;1053;-70
2021/09/29 01:12:35;;;;;;;;;;;24.80;49.60;;;;;;488705;243;1685;-70
2021/09/29 01:14:36;;;;;;;;;;;24.90;49.70;;;;;;488788;243;1058;-70
2021/09/29 01:16:37;;;;;;;;;;;24.90;49.50;;;;;;488734;243;962;-70
2021/09/29 01:18:39;;;;;;;;;;;25.00;49.50;;;;;;488692;243;1124;-70
2021/09/29 01:20:40;;;;;;;;;;;24.90;49.60;;;;;;488708;243;1417;-70
2021/09/29 01:22:41;;;;;;;;;;;24.80;49.70;;;;;;488673;243;1058;-70
2021/09/29 01:24:43;;;;;;;;;;;24.90;49.80;;;;;;488815;243;2118;-70
2021/09/29 01:26:44;;;;;;;;;;;24.80;49.70;;;;;;488727;243;1182;-70
2021/09/29 01:28:45;;;;;;;;;;;24.80;49.80;;;;;;488778;243;1027;-70
2021/09/29 01:30:47;;;;;;;;;;;24.90;49.70;;;;;;488733;243;1204;-70
2021/09/29 01:32:48;;;;;;;;;;;25.00;49.60;;;;;;488842;243;1186;-70
2021/09/29 01:34:50;;;;;;;;;;;24.90;49.40;;;;;;488830;243;1069;-70
2021/09/29 01:36:51;;;;;;;;;;;24.90;49.70;;;;;;488649;243;1203;-70
2021/09/29 01:38:55;;;;;;;;;;;24.90;49.70;;;;;;488840;243;977;-70
2021/09/29 01:40:55;;;;;;;;;;;24.90;49.60;;;;;;488729;243;1465;-70
2021/09/29 01:42:56;;;;;;;;;;;24.90;49.70;;;;;;488796;243;1238;-70
2021/09/29 01:44:58;;;;;;;;;;;25.00;49.60;;;;;;488785;243;2115;-70
2021/09/29 01:46:59;;;;;;;;;;;25.00;49.50;;;;;;488754;243;1040;-70
2021/09/29 01:49:01;;;;;;;;;;;24.90;49.70;;;;;;488769;243;1108;-70
2021/09/29 01:51:02;;;;;;;;;;;24.90;49.80;;;;;;488687;243;1036;-70
2021/09/29 01:53:04;;;;;;;;;;;24.90;49.70;;;;;;488661;243;965;-70
2021/09/29 01:55:05;;;;;;;;;;;24.90;49.90;;;;;;488732;243;1117;-70
2021/09/29 01:57:06;;;;;;;;;;;24.90;49.70;;;;;;488716;243;1180;-70
2021/09/29 01:59:08;;;;;;;;;;;24.90;49.70;;;;;;488775;243;985;-70
2021/09/29 02:01:09;;;;;;;;;;;24.80;49.90;;;;;;488744;243;1120;-70
2021/09/29 02:03:10;;;;;;;;;;;24.90;49.90;;;;;;488695;243;2114;-70
2021/09/29 02:05:12;;;;;;;;;;;25.00;49.80;;;;;;488737;243;1231;-70
2021/09/29 02:07:13;;;;;;;;;;;24.90;49.70;;;;;;488629;243;1079;-70
2021/09/29 02:09:14;;;;;;;;;;;25.00;49.70;;;;;;488715;243;924;-70
2021/09/29 02:11:16;;;;;;;;;;;24.90;49.70;;;;;;488683;243;950;-70
2021/09/29 02:13:17;;;;;;;;;;;24.90;49.80;;;;;;488795;243;1140;-70
2021/09/29 02:15:18;;;;;;;;;;;24.90;49.70;;;;;;488735;243;967;-70
2021/09/29 02:17:20;;;;;;;;;;;25.00;49.60;;;;;;488775;243;946;-70
2021/09/29 02:19:21;;;;;;;;;;;25.00;49.70;;;;;;488772;243;1118;-70
2021/09/29 02:21:22;;;;;;;;;;;24.90;49.60;;;;;;488813;243;1232;-70
2021/09/29 02:23:24;;;;;;;;;;;24.90;49.70;;;;;;488843;243;2190;-70
2021/09/29 02:25:25;;;;;;;;;;;24.80;50.00;;;;;;488795;243;1026;-70
2021/09/29 02:27:26;;;;;;;;;;;25.00;49.80;;;;;;488727;243;1204;-70
2021/09/29 02:29:27;;;;;;;;;;;25.00;49.70;;;;;;488781;243;1127;-70
2021/09/29 02:31:29;;;;;;;;;;;25.00;49.60;;;;;;488697;243;1027;-70
2021/09/29 02:33:30;;;;;;;;;;;24.90;49.70;;;;;;488788;243;1114;-70
2021/09/29 02:35:31;;;;;;;;;;;24.90;49.60;;;;;;488793;243;939;-70
2021/09/29 02:37:33;;;;;;;;;;;25.00;49.70;;;;;;488735;243;1324;-70
2021/09/29 02:39:34;;;;;;;;;;;24.90;49.70;;;;;;488775;243;1042;-70
2021/09/29 02:41:35;;;;;;;;;;;24.90;49.70;;;;;;488786;243;1051;-70
2021/09/29 02:43:37;;;;;;;;;;;24.90;49.70;;;;;;488744;243;2146;-70
2021/09/29 02:45:38;;;;;;;;;;;24.90;49.90;;;;;;488763;243;972;-69
2021/09/29 02:47:39;;;;;;;;;;;24.80;49.90;;;;;;488716;243;1048;-69
2021/09/29 02:49:41;;;;;;;;;;;24.90;49.90;;;;;;488798;243;1040;-69
2021/09/29 02:51:42;;;;;;;;;;;24.90;49.70;;;;;;488664;243;944;-69
2021/09/29 02:53:44;;;;;;;;;;;25.00;49.60;;;;;;488762;243;940;-69
2021/09/29 02:55:45;;;;;;;;;;;25.00;49.60;;;;;;488834;243;1044;-69
2021/09/29 02:57:46;;;;;;;;;;;24.90;49.70;;;;;;488785;243;1149;-69
2021/09/29 02:59:48;;;;;;;;;;;24.90;49.70;;;;;;488785;243;1035;-70
2021/09/29 03:01:49;;;;;;;;;;;24.90;49.90;;;;;;488767;243;1034;-70
2021/09/29 03:03:50;;;;;;;;;;;24.50;50.30;;;;;;488751;243;2119;-70
2021/09/29 03:05:52;;;;;;;;;;;24.60;50.80;;;;;;488694;243;1039;-70
2021/09/29 03:07:53;;;;;;;;;;;24.40;50.80;;;;;;488728;243;1033;-70
2021/09/29 03:09:54;;;;;;;;;;;24.40;51.30;;;;;;488812;243;954;-70
2021/09/29 03:11:55;;;;;;;;;;;24.40;50.90;;;;;;488808;243;923;-70
2021/09/29 03:13:57;;;;;;;;;;;24.20;51.50;;;;;;488809;243;1159;-70
2021/09/29 03:15:58;;;;;;;;;;;24.20;51.30;;;;;;488722;243;1095;-70
2021/09/29 03:17:59;;;;;;;;;;;24.30;51.70;;;;;;488771;243;1162;-70
2021/09/29 03:20:01;;;;;;;;;;;24.50;50.90;;;;;;488772;243;1086;-70
2021/09/29 03:22:02;;;;;;;;;;;24.40;51.20;;;;;;488730;243;1037;-70
2021/09/29 03:24:04;;;;;;;;;;;24.40;50.90;;;;;;488719;243;2123;-70
2021/09/29 03:26:05;;;;;;;;;;;24.00;51.70;;;;;;488722;243;960;-70
2021/09/29 03:28:06;;;;;;;;;;;23.90;52.20;;;;;;488734;243;1279;-70
2021/09/29 03:30:08;;;;;;;;;;;24.40;51.50;;;;;;488808;243;1047;-70
2021/09/29 03:32:09;;;;;;;;;;;24.50;51.00;;;;;;488736;243;1116;-70
2021/09/29 03:34:10;;;;;;;;;;;24.70;50.50;;;;;;488727;243;965;-70
2021/09/29 03:36:12;;;;;;;;;;;24.80;50.10;;;;;;488706;243;1055;-70
2021/09/29 03:38:13;;;;;;;;;;;24.70;50.20;;;;;;488672;243;1230;-70
2021/09/29 03:40:14;;;;;;;;;;;24.80;50.30;;;;;;488715;243;954;-70
2021/09/29 03:42:16;;;;;;;;;;;24.80;50.00;;;;;;488670;243;1107;-70
2021/09/29 03:44:17;;;;;;;;;;;24.70;50.30;;;;;;488783;243;2130;-70
2021/09/29 03:46:19;;;;;;;;;;;24.80;50.20;;;;;;488772;243;1047;-70
2021/09/29 03:48:20;;;;;;;;;;;24.70;50.30;;;;;;488743;243;1210;-70
2021/09/29 03:50:21;;;;;;;;;;;24.70;50.30;;;;;;488767;243;1275;-70
2021/09/29 03:52:22;;;;;;;;;;;24.80;50.20;;;;;;488633;243;1115;-70
2021/09/29 03:54:23;;;;;;;;;;;24.70;50.30;;;;;;488716;243;1229;-70
2021/09/29 03:56:25;;;;;;;;;;;24.70;50.30;;;;;;488682;243;1129;-70
2021/09/29 03:58:26;;;;;;;;;;;24.70;50.30;;;;;;488755;243;1144;-70
2021/09/29 04:00:28;;;;;;;;;;;24.80;50.10;;;;;;488682;243;948;-70
2021/09/29 04:02:29;;;;;;;;;;;24.80;50.00;;;;;;488726;243;1129;-70
2021/09/29 04:04:30;;;;;;;;;;;24.80;50.00;;;;;;488682;243;2438;-70
2021/09/29 04:06:31;;;;;;;;;;;24.70;50.20;;;;;;488677;243;1181;-70
2021/09/29 04:08:33;;;;;;;;;;;24.80;50.10;;;;;;488621;243;1053;-70
2021/09/29 04:10:34;;;;;;;;;;;24.80;50.10;;;;;;488722;243;992;-70
2021/09/29 04:12:35;;;;;;;;;;;24.80;50.10;;;;;;488699;243;1262;-70
2021/09/29 04:14:37;;;;;;;;;;;24.90;49.80;;;;;;488739;243;1212;-70
2021/09/29 04:16:38;;;;;;;;;;;24.90;50.00;;;;;;488738;243;1188;-70
2021/09/29 04:18:39;;;;;;;;;;;24.80;50.00;;;;;;488752;243;1047;-70
2021/09/29 04:20:41;;;;;;;;;;;24.90;50.00;;;;;;488625;243;929;-70
2021/09/29 04:22:42;;;;;;;;;;;24.90;50.00;;;;;;488709;243;1143;-70
2021/09/29 04:24:44;;;;;;;;;;;24.80;50.00;;;;;;488482;243;2107;-70
2021/09/29 04:26:46;;;;;;;;;;;24.80;50.00;;;;;;488529;243;1156;-69
2021/09/29 04:28:47;;;;;;;;;;;24.80;50.10;;;;;;488625;243;1187;-69
2021/09/29 04:30:49;;;;;;;;;;;24.80;50.10;;;;;;488663;243;1029;-69
2021/09/29 04:32:50;;;;;;;;;;;24.90;49.90;;;;;;488621;243;1010;-69
2021/09/29 04:34:51;;;;;;;;;;;24.80;50.00;;;;;;488611;243;1048;-69
2021/09/29 04:36:53;;;;;;;;;;;24.80;50.00;;;;;;488591;243;969;-69
2021/09/29 04:38:54;;;;;;;;;;;24.80;50.00;;;;;;488531;243;1021;-69
2021/09/29 04:40:55;;;;;;;;;;;24.70;50.20;;;;;;488448;243;1030;-69
2021/09/29 04:42:57;;;;;;;;;;;24.80;50.00;;;;;;488460;243;1034;-69
2021/09/29 04:44:58;;;;;;;;;;;24.80;50.00;;;;;;488508;243;2146;-69
2021/09/29 04:46:59;;;;;;;;;;;24.80;49.90;;;;;;488448;243;1039;-69
2021/09/29 04:49:01;;;;;;;;;;;24.80;50.00;;;;;;488647;243;1059;-69
2021/09/29 04:51:02;;;;;;;;;;;24.70;50.00;;;;;;488535;243;948;-69
2021/09/29 04:53:04;;;;;;;;;;;24.80;50.10;;;;;;488527;243;1028;-69
2021/09/29 04:55:05;;;;;;;;;;;24.70;50.10;;;;;;488361;243;1165;-69
2021/09/29 04:57:06;;;;;;;;;;;24.80;50.10;;;;;;488350;243;1058;-69
2021/09/29 04:59:08;;;;;;;;;;;24.80;49.90;;;;;;488495;243;1133;-69
2021/09/29 05:01:09;;;;;;;;;;;24.80;49.90;;;;;;488459;243;1222;-69
2021/09/29 05:03:10;;;;;;;;;;;24.70;50.00;;;;;;488515;243;1074;-69
2021/09/29 05:05:11;;;;;;;;;;;24.80;50.10;;;;;;488470;243;2409;-69
2021/09/29 05:07:13;;;;;;;;;;;24.90;49.90;;;;;;488403;243;1299;-69
2021/09/29 05:09:14;;;;;;;;;;;24.80;49.80;;;;;;488458;243;1123;-69
2021/09/29 05:11:16;;;;;;;;;;;24.80;50.10;;;;;;488414;243;1225;-69
2021/09/29 05:13:17;;;;;;;;;;;24.80;50.10;;;;;;488440;243;1119;-69
2021/09/29 05:15:18;;;;;;;;;;;24.80;50.00;;;;;;488400;243;1212;-69
2021/09/29 05:17:20;;;;;;;;;;;24.70;50.10;;;;;;488302;243;1237;-69
2021/09/29 05:19:21;;;;;;;;;;;24.80;50.00;;;;;;488370;243;999;-69
2021/09/29 05:21:22;;;;;;;;;;;24.80;50.00;;;;;;488377;243;1341;-70
2021/09/29 05:23:24;;;;;;;;;;;24.90;49.80;;;;;;488427;243;1054;-70
2021/09/29 05:25:25;;;;;;;;;;;24.80;50.10;;;;;;488411;243;2173;-70
2021/09/29 05:27:26;;;;;;;;;;;24.80;49.90;;;;;;488356;243;974;-70
2021/09/29 05:29:28;;;;;;;;;;;24.80;50.00;;;;;;488401;243;1207;-70
2021/09/29 05:31:29;;;;;;;;;;;24.80;50.00;;;;;;488211;243;1011;-70
2021/09/29 05:33:30;;;;;;;;;;;24.80;49.90;;;;;;488204;243;1041;-70
2021/09/29 05:35:32;;;;;;;;;;;24.80;50.00;;;;;;488247;243;1032;-70
2021/09/29 05:37:33;;;;;;;;;;;24.80;49.90;;;;;;488153;243;1048;-70
2021/09/29 05:39:34;;;;;;;;;;;24.80;49.80;;;;;;488158;243;1027;-70
2021/09/29 05:41:36;;;;;;;;;;;24.70;50.00;;;;;;488124;243;1072;-70
2021/09/29 05:43:37;;;;;;;;;;;24.80;50.00;;;;;;488191;243;1021;-70
2021/09/29 05:45:38;;;;;;;;;;;24.60;50.20;;;;;;488351;243;2134;-70
2021/09/29 05:47:39;;;;;;;;;;;24.70;50.10;;;;;;488329;243;1039;-70
2021/09/29 05:49:41;;;;;;;;;;;24.70;50.10;;;;;;488196;243;989;-70
2021/09/29 05:51:45;;;;;;;;;;;24.70;50.10;;;;;;488187;243;1148;-70
2021/09/29 05:53:43;;;;;;;;;;;24.80;50.00;;;;;;488117;243;1436;-69
2021/09/29 05:55:45;;;;;;;;;;;24.80;50.00;;;;;;488227;243;1073;-69
2021/09/29 05:57:46;;;;;;;;;;;24.70;50.10;;;;;;488210;243;1351;-69
2021/09/29 05:59:48;;;;;;;;;;;24.70;50.10;;;;;;488237;243;1193;-69
2021/09/29 06:01:51;;;;;;;;;;;24.80;50.00;;;;;;488214;243;1060;-70
2021/09/29 06:03:50;;;;;;;;;;;24.70;50.00;;;;;;488139;243;1241;-69
2021/09/29 06:05:51;;;;;;;;;;;24.70;50.00;;;;;;488249;243;2197;-69
2021/09/29 06:07:53;;;;;;;;;;;24.60;50.20;;;;;;488279;243;1245;-69
2021/09/29 06:09:54;;;;;;;;;;;24.80;50.10;;;;;;488272;243;982;-69
2021/09/29 06:11:56;;;;;;;;;;;24.80;49.80;;;;;;488151;243;1097;-69
2021/09/29 06:14:01;;;;;;;;;;;24.80;49.90;;;;;;488208;243;1217;-70
2021/09/29 06:16:01;;;;;;;;;;;24.70;50.10;;;;;;487901;243;1516;-70
2021/09/29 06:18:02;;;;;;;;;;;24.80;49.80;;;;;;487993;243;1243;-70
2021/09/29 06:20:01;;;;;;;;;;;24.40;50.60;;;;;;487977;243;1383;-70
2021/09/29 06:22:02;;;;;;;;;;;24.40;50.70;;;;;;488052;243;1239;-70
2021/09/29 06:24:04;;;;;;;;;;;24.50;50.50;;;;;;488106;243;1057;-70
2021/09/29 06:26:07;;;;;;;;;;;24.60;50.10;;;;;;488154;243;2206;-70
2021/09/29 06:28:07;;;;;;;;;;;24.70;50.10;;;;;;488099;243;1347;-70
2021/09/29 06:30:08;;;;;;;;;;;24.80;50.00;;;;;;488137;243;1146;-70
2021/09/29 06:32:10;;;;;;;;;;;24.80;49.70;;;;;;488145;243;1040;-70
2021/09/29 06:34:11;;;;;;;;;;;24.70;49.90;;;;;;488133;243;953;-70
2021/09/29 06:36:12;;;;;;;;;;;24.80;49.80;;;;;;488100;243;1077;-70
2021/09/29 06:38:14;;;;;;;;;;;24.80;49.80;;;;;;487934;243;1048;-70
2021/09/29 06:40:15;;;;;;;;;;;24.80;49.90;;;;;;487986;243;1410;-70
2021/09/29 06:42:16;;;;;;;;;;;24.80;49.70;;;;;;487979;243;1100;-70
2021/09/29 06:44:18;;;;;;;;;;;24.80;49.80;;;;;;487981;243;1096;-70
2021/09/29 06:46:19;;;;;;;;;;;24.90;49.70;;;;;;487784;243;2178;-70
2021/09/29 06:48:20;;;;;;;;;;;24.80;49.90;;;;;;487923;243;1133;-70
2021/09/29 06:50:22;;;;;;;;;;;24.70;49.90;;;;;;488118;243;1033;-70
2021/09/29 06:52:23;;;;;;;;;;;24.80;49.80;;;;;;488126;243;1063;-70
2021/09/29 06:54:24;;;;;;;;;;;24.70;50.00;;;;;;488091;243;1042;-70
2021/09/29 06:56:25;;;;;;;;;;;24.70;50.10;;;;;;488058;243;1115;-70
2021/09/29 06:58:27;;;;;;;;;;;24.60;50.40;;;;;;488032;243;1067;-70
2021/09/29 07:00:28;;;;;;;;;;;24.40;50.60;;;;;;487879;243;1173;-70
2021/09/29 07:02:29;;;;;;;;;;;24.40;50.80;;;;;;487899;243;1118;-70
2021/09/29 07:04:31;;;;;;;;;;;24.30;50.90;;;;;;488009;243;1203;-70
2021/09/29 07:06:32;;;;;;;;;;;24.20;51.30;;;;;;487918;243;2133;-70
2021/09/29 07:08:33;;;;;;;;;;;24.10;51.50;;;;;;487998;243;1088;-70
2021/09/29 07:10:35;;;;;;;;;;;24.00;51.70;;;;;;488019;243;1321;-70
2021/09/29 07:12:36;;;;;;;;;;;24.00;51.80;;;;;;487966;243;1172;-71
2021/09/29 07:14:37;;;;;;;;;;;23.90;52.10;;;;;;487912;243;1029;-70
2021/09/29 07:16:39;;;;;;;;;;;23.80;52.20;;;;;;487726;243;1601;-70
2021/09/29 07:18:41;;;;;;;;;;;23.80;52.40;;;;;;487877;243;1065;-70
2021/09/29 07:20:42;;;;;;;;;;;23.80;52.40;;;;;;487854;243;1349;-70
2021/09/29 07:22:43;;;;;;;;;;;23.70;52.50;;;;;;487874;243;1185;-70
2021/09/29 07:24:44;;;;;;;;;;;23.70;52.50;;;;;;487729;243;1035;-70
2021/09/29 07:26:45;;;;;;;;;;;23.70;52.60;;;;;;487504;243;2103;-70
2021/09/29 07:28:48;;;;;;;;;;;23.60;52.70;;;;;;487833;243;1201;-70
2021/09/29 07:30:48;;;;;;;;;;;23.60;52.80;;;;;;487878;243;1821;-70
2021/09/29 07:32:51;;;;;;;;;;;23.60;52.90;;;;;;487841;243;1066;-70
2021/09/29 07:34:51;;;;;;;;;;;23.50;52.90;;;;;;487830;243;1391;-70
2021/09/29 07:36:52;;;;;;;;;;;23.50;52.90;;;;;;487860;243;1063;-70
2021/09/29 07:38:54;;;;;;;;;;;23.50;52.90;;;;;;487851;243;1209;-70
2021/09/29 07:40:55;;;;;;;;;;;23.50;52.90;;;;;;487921;243;1082;-70
2021/09/29 07:42:56;;;;;;;;;;;23.50;52.80;;;;;;487781;243;1160;-69
2021/09/29 07:44:58;;;;;;;;;;;23.50;52.80;;;;;;487694;243;1118;-70
2021/09/29 07:46:59;;;;;;;;;;;23.50;52.70;;;;;;487463;243;2178;-70
2021/09/29 07:49:00;;;;;;;;;;;23.50;52.70;;;;;;487823;243;1158;-70
2021/09/29 07:51:02;;;;;;;;;;;23.50;52.70;;;;;;487948;243;1051;-70
2021/09/29 07:53:03;;;;;;;;;;;23.50;52.70;;;;;;487876;243;1062;-70
2021/09/29 07:55:04;;;;;;;;;;;23.50;52.50;;;;;;487709;243;1039;-70
2021/09/29 07:57:06;;;;;;;;;;;23.40;52.40;;;;;;487745;243;1099;-70
2021/09/29 07:59:07;;;;;;;;;;;23.50;52.40;;;;;;487962;243;1120;-70
2021/09/29 08:01:08;;;;;;;;;;;23.40;52.40;;;;;;487885;243;1135;-70
2021/09/29 08:03:10;;;;;;;;;;;23.50;52.20;;;;;;487933;243;1040;-70
2021/09/29 08:05:11;;;;;;;;;;;23.50;52.10;;;;;;487801;243;1221;-70
2021/09/29 08:07:13;;;;;;;;;;;23.50;52.00;;;;;;487762;243;2201;-70
2021/09/29 08:09:14;;;;;;;;;;;23.50;52.00;;;;;;487718;243;1393;-70
2021/09/29 08:11:16;;;;;;;;;;;23.50;51.80;;;;;;487773;243;1192;-70
2021/09/29 08:13:17;;;;;;;;;;;23.50;51.60;;;;;;487829;243;1169;-70
2021/09/29 08:15:19;;;;;;;;;;;23.50;51.60;;;;;;487869;243;1046;-70
2021/09/29 08:17:20;;;;;;;;;;;23.50;51.50;;;;;;487795;243;1164;-70
2021/09/29 08:19:21;;;;;;;;;;;23.50;51.40;;;;;;487687;243;1097;-70
2021/09/29 08:21:27;;;;;;;;;;;23.50;51.30;;;;;;487359;243;1457;-70
2021/09/29 08:23:28;;;;;;;;;;;23.50;51.30;;;;;;487487;243;1324;-69
2021/09/29 08:25:42;;;;;;;;;;;23.50;51.00;;;;;;487577;243;2209;-69
2021/09/29 08:27:37;;;;;;;;;;;23.50;51.00;;;;;;487555;243;1302;-69
2021/09/29 08:30:00;;;;;;;;;;;23.50;51.00;;;;;;487670;243;1252;-69
2021/09/29 08:32:05;;;;;;;;;;;23.50;50.90;;;;;;487187;243;1487;-70
2021/09/29 08:34:12;;;;;;;;;;;23.50;50.80;;;;;;487586;243;1388;-70
2021/09/29 08:36:16;;;;;;;;;;;23.50;50.70;;;;;;487525;243;1433;-70
2021/09/29 08:38:12;;;;;;;;;;;23.50;50.60;;;;;;487371;243;1436;-70
2021/09/29 08:40:21;;;;;;;;;;;23.40;50.50;;;;;;487710;243;1588;-70
2021/09/29 08:42:25;;;;;;;;;;;23.50;50.50;;;;;;487637;243;1499;-70
2021/09/29 08:44:26;;;;;;;;;;;23.50;50.30;;;;;;487503;243;1341;-70
2021/09/29 08:46:30;;;;;;;;;;;23.50;50.40;;;;;;487386;243;2180;-70
2021/09/29 08:48:33;;;;;;;;;;;23.50;50.30;;;;;;487482;243;1449;-70
2021/09/29 08:50:44;;;;;;;;;;;23.50;50.20;;;;;;487689;243;1480;-70
2021/09/29 08:57:58;;;;;;;;;;;23.50;50.00;;;;;;487574;243;1048;-70
2021/09/29 09:16:11;;;;;;;;;;;23.70;49.30;;;;;;487714;243;1200;-70
2021/09/29 09:18:10;;;;;;;;;;;23.80;49.00;;;;;;487554;244;1320;-70
2021/09/29 09:20:11;;;;;;;;;;;23.80;49.00;;;;;;487481;243;1092;-70
2021/09/29 09:22:14;;;;;;;;;;;23.80;48.90;;;;;;487379;243;1085;-70
2021/09/29 09:24:14;;;;;;;;;;;23.80;48.80;;;;;;487317;243;1321;-70
2021/09/29 09:26:15;;;;;;;;;;;23.80;48.70;;;;;;487295;243;2193;-70
2021/09/29 09:28:17;;;;;;;;;;;23.90;48.50;;;;;;487352;243;1290;-70
2021/09/29 09:30:18;;;;;;;;;;;24.00;48.30;;;;;;487677;243;1071;-70
2021/09/29 09:32:19;;;;;;;;;;;24.00;48.10;;;;;;487817;243;1375;-70
2021/09/29 09:34:21;;;;;;;;;;;24.00;48.00;;;;;;487800;243;1002;-70
2021/09/29 09:36:22;;;;;;;;;;;24.00;47.90;;;;;;487582;243;1206;-70
2021/09/29 09:38:25;;;;;;;;;;;24.10;47.60;;;;;;487770;243;1453;-70
2021/09/29 09:40:26;;;;;;;;;;;24.00;47.60;;;;;;487524;243;1347;-70
2021/09/29 09:42:26;;;;;;;;;;;24.00;47.70;;;;;;487493;243;2272;-70
2021/09/29 09:44:27;;;;;;;;;;;24.00;47.70;;;;;;487781;243;1072;-70
2021/09/29 09:46:29;;;;;;;;;;;24.00;47.70;;;;;;486889;243;2138;-70
2021/09/29 09:48:30;;;;;;;;;;;24.10;47.40;;;;;;487807;243;1195;-69
2021/09/29 09:50:31;;;;;;;;;;;24.10;47.20;;;;;;487429;243;1093;-70
2021/09/29 09:52:33;;;;;;;;;;;24.10;47.30;;;;;;487484;243;1188;-70
2021/09/29 09:54:34;;;;;;;;;;;24.10;47.30;;;;;;487736;243;1025;-70
2021/09/29 09:56:37;;;;;;;;;;;24.00;47.30;;;;;;487704;243;1111;-70
2021/09/29 09:58:37;;;;;;;;;;;24.00;47.40;;;;;;487864;243;1689;-70
2021/09/29 10:00:38;;;;;;;;;;;24.00;47.30;;;;;;487748;243;1226;-70
2021/09/29 10:02:39;;;;;;;;;;;24.00;47.50;;;;;;487718;243;1159;-70
2021/09/29 10:04:41;;;;;;;;;;;24.00;47.50;;;;;;487565;243;1022;-70
2021/09/29 10:06:42;;;;;;;;;;;24.00;47.30;;;;;;487871;243;2205;-70
2021/09/29 10:08:48;;;;;;;;;;;24.00;47.10;;;;;;487862;243;1043;-70
2021/09/29 10:10:59;;;;;;;;;;;24.00;47.20;;;;;;487462;243;1846;-70
2021/09/29 10:13:12;;;;;;;;;;;24.00;47.10;;;;;;487487;244;1407;-70
2021/09/29 10:15:31;;;;;;;;;;;24.10;47.10;;;;;;487142;243;1403;-70
2021/09/29 10:26:42;;;;;;;;;;;24.10;46.70;;;;;;487399;243;2151;-70
2021/09/29 10:28:44;;;;;;;;;;;24.20;46.60;;;;;;487521;243;1231;-70
2021/09/29 10:30:48;;;;;;;;;;;24.10;46.50;;;;;;487406;243;1140;-70
2021/09/29 10:32:49;;;;;;;;;;;24.20;46.70;;;;;;487264;243;1325;-70
2021/09/29 10:34:51;;;;;;;;;;;24.20;46.40;;;;;;487613;243;1305;-70
2021/09/29 10:37:01;;;;;;;;;;;24.10;46.60;;;;;;487362;243;1360;-70
2021/09/29 10:41:24;;;;;;;;;;;24.10;46.60;;;;;;473142;244;1090;-70
2021/09/29 10:43:27;;;;;;;;;;;24.20;46.60;;;;;;487783;243;1179;-70
2021/09/29 10:45:42;;;;;;;;;;;24.30;46.30;;;;;;487568;243;1275;-70
2021/09/29 10:47:49;;;;;;;;;;;24.30;46.30;;;;;;488013;240;2181;-70
2021/09/29 10:52:34;;;;;;;;;;;24.30;46.20;;;;;;463051;256;888;-70
2021/09/29 11:30:21;;;;;;;;;;;24.60;44.70;;;;;;487370;243;1209;-70
2021/09/29 11:32:27;;;;;;;;;;;24.50;44.80;;;;;;488203;243;1425;-70
2021/09/29 11:34:28;;;;;;;;;;;24.50;44.70;;;;;;487580;243;1248;-70
2021/09/29 11:39:21;;;;;;;;;;;24.60;44.50;;;;;;488037;243;788;-70
2021/09/29 12:09:35;;;;;;;;;;;24.30;44.90;;;;;;487535;243;1074;-70
2021/09/29 12:11:43;;;;;;;;;;;24.30;44.80;;;;;;487155;243;1340;-70
2021/09/29 12:13:44;;;;;;;;;;;24.30;44.80;;;;;;488029;243;1196;-70
2021/09/29 12:15:45;;;;;;;;;;;24.40;44.70;;;;;;486945;243;1278;-70
2021/09/29 12:17:50;;;;;;;;;;;24.10;45.10;;;;;;488316;243;842;-70
2021/09/29 12:19:51;;;;;;;;;;;24.10;45.20;;;;;;487650;243;1325;-70
2021/09/29 12:21:50;;;;;;;;;;;24.10;45.10;;;;;;488013;243;1443;-70
2021/09/29 12:23:50;;;;;;;;;;;23.90;45.40;;;;;;488179;243;1278;-70
2021/09/29 12:25:55;;;;;;;;;;;23.90;45.50;;;;;;487807;243;1072;-70
2021/09/29 12:28:05;;;;;;;;;;;23.80;45.70;;;;;;488144;243;2192;-70
2021/09/29 12:29:57;;;;;;;;;;;23.60;46.00;;;;;;487199;243;1322;-70
2021/09/29 12:32:11;;;;;;;;;;;23.80;45.80;;;;;;487718;243;2135;-70
2021/09/29 12:34:16;;;;;;;;;;;23.90;45.40;;;;;;487610;239;1315;-70
2021/09/29 12:36:14;;;;;;;;;;;23.90;45.40;;;;;;487926;243;1208;-70
2021/09/29 12:38:15;;;;;;;;;;;23.80;45.40;;;;;;488350;243;1094;-70
2021/09/29 12:40:16;;;;;;;;;;;23.80;45.50;;;;;;487828;243;819;-70
2021/09/29 12:42:18;;;;;;;;;;;23.80;45.50;;;;;;487658;243;1247;-70
2021/09/29 12:44:19;;;;;;;;;;;23.70;45.70;;;;;;488225;243;605;-70
2021/09/29 12:46:21;;;;;;;;;;;23.70;45.60;;;;;;487901;244;730;-70
2021/09/29 12:48:24;;;;;;;;;;;23.80;45.50;;;;;;487872;243;2193;-70
2021/09/29 12:50:27;;;;;;;;;;;23.60;45.60;;;;;;487715;243;1285;-70
2021/09/29 12:52:28;;;;;;;;;;;23.70;45.80;;;;;;487504;243;1272;-70
2021/09/29 12:54:28;;;;;;;;;;;23.90;45.40;;;;;;488169;243;1232;-70
2021/09/29 12:56:29;;;;;;;;;;;23.90;45.30;;;;;;488111;243;1167;-70
2021/09/29 12:58:31;;;;;;;;;;;24.00;45.00;;;;;;488158;243;1012;-70
2021/09/29 13:00:32;;;;;;;;;;;23.90;45.20;;;;;;488319;243;801;-70
2021/09/29 13:02:33;;;;;;;;;;;24.00;45.10;;;;;;487920;243;1101;-70
2021/09/29 13:04:35;;;;;;;;;;;24.10;44.80;;;;;;488117;243;1098;-70
2021/09/29 13:06:36;;;;;;;;;;;24.20;44.80;;;;;;487937;243;917;-70
2021/09/29 13:08:37;;;;;;;;;;;24.10;45.00;;;;;;488063;243;2233;-70
2021/09/29 13:10:39;;;;;;;;;;;24.10;44.90;;;;;;487814;243;876;-70
2021/09/29 13:12:40;;;;;;;;;;;24.20;45.00;;;;;;487848;243;1146;-70
2021/09/29 13:14:41;;;;;;;;;;;24.20;44.70;;;;;;488322;243;799;-70
2021/09/29 13:16:43;;;;;;;;;;;24.30;44.70;;;;;;487690;243;823;-70
2021/09/29 13:18:46;;;;;;;;;;;24.20;44.80;;;;;;488058;243;1078;-70
2021/09/29 13:20:51;;;;;;;;;;;24.30;44.80;;;;;;487801;243;1242;-70
2021/09/29 13:22:50;;;;;;;;;;;24.40;44.60;;;;;;487349;243;1394;-70
2021/09/29 13:35:04;;;;;;;;;;;24.40;44.60;;;;;;476478;244;2188;-70
2021/09/29 13:36:46;;;;;;;;;;;24.50;44.40;;;;;;488357;243;777;-70
2021/09/29 13:38:47;;;;;;;;;;;24.40;44.40;;;;;;488343;243;1041;-70
2021/09/29 13:40:49;;;;;;;;;;;24.30;44.70;;;;;;487890;243;892;-70
2021/09/29 13:42:50;;;;;;;;;;;24.20;44.70;;;;;;488289;243;1158;-70
2021/09/29 13:44:51;;;;;;;;;;;24.20;44.80;;;;;;488306;243;1035;-70
2021/09/29 13:46:53;;;;;;;;;;;24.20;44.70;;;;;;487909;243;1042;-70
2021/09/29 13:48:56;;;;;;;;;;;24.10;44.70;;;;;;487870;243;2102;-70
2021/09/29 13:50:55;;;;;;;;;;;24.20;44.80;;;;;;487867;243;1421;-70
2021/09/29 13:52:58;;;;;;;;;;;24.10;44.80;;;;;;487997;243;1445;-70